sensor_id;sensor_type;location;lat;lon;timestamp;pressure;altitude;pressure_sealevel;temperature;humidity
34297;BME280;20564;42.902;25.336;2023-03-01T00:01:33;97988.06;;;5.55;100.00
34297;BME280;20564;42.902;25.336;2023-03-01T00:04:01;97991.50;;;5.55;100.00
34297;BME280;20564;42.902;25.336;2023-03-01T00:06:28;97987.06;;;5.57;100.00
34297;BME280;20564;42.902;25.336;2023-03-01T00:08:56;97987.41;;;5.51;100.00
34297;BME280;20564;42.902;25.336;2023-03-01T00:11:26;97982.00;;;5.54;100.00
34297;BME280;20564;42.902;25.336;2023-03-01T00:13:56;97977.56;;;5.56;100.00
34297;BME280;20564;42.902;25.336;2023-03-01T00:16:44;97973.25;;;5.55;100.00
34297;BME280;20564;42.902;25.336;2023-03-01T00:19:31;97972.22;;;5.58;100.00
34297;BME280;20564;42.902;25.336;2023-03-01T00:22:09;97959.84;;;5.62;100.00
34297;BME280;20564;42.902;25.336;2023-03-01T00:25:00;97963.19;;;5.49;100.00
34297;BME280;20564;42.902;25.336;2023-03-01T00:27:34;97956.44;;;5.45;100.00
34297;BME280;20564;42.902;25.336;2023-03-01T00:30:02;97958.41;;;5.42;100.00
34297;BME280;20564;42.902;25.336;2023-03-01T00:32:29;97963.53;;;5.43;100.00
34297;BME280;20564;42.902;25.336;2023-03-01T00:35:11;97956.34;;;5.47;100.00
34297;BME280;20564;42.902;25.336;2023-03-01T00:37:38;97954.13;;;5.55;100.00
34297;BME280;20564;42.902;25.336;2023-03-01T00:40:10;97949.00;;;5.53;100.00
34297;BME280;20564;42.902;25.336;2023-03-01T00:42:46;97937.63;;;5.54;100.00
34297;BME280;20564;42.902;25.336;2023-03-01T00:45:16;97928.50;;;5.62;100.00
34297;BME280;20564;42.902;25.336;2023-03-01T00:48:00;97926.06;;;5.59;100.00
34297;BME280;20564;42.902;25.336;2023-03-01T00:50:28;97934.28;;;5.52;100.00
34297;BME280;20564;42.902;25.336;2023-03-01T00:52:57;97931.06;;;5.47;100.00
34297;BME280;20564;42.902;25.336;2023-03-01T00:55:28;97929.59;;;5.43;100.00
34297;BME280;20564;42.902;25.336;2023-03-01T00:57:59;97915.50;;;5.46;100.00
34297;BME280;20564;42.902;25.336;2023-03-01T01:00:37;97914.28;;;5.51;100.00
34297;BME280;20564;42.902;25.336;2023-03-01T01:03:40;97925.19;;;5.44;100.00
34297;BME280;20564;42.902;25.336;2023-03-01T01:06:13;97910.47;;;5.43;100.00
34297;BME280;20564;42.902;25.336;2023-03-01T01:08:41;97921.75;;;5.43;100.00
34297;BME280;20564;42.902;25.336;2023-03-01T01:11:12;97919.69;;;5.48;100.00
34297;BME280;20564;42.902;25.336;2023-03-01T01:13:55;97919.53;;;5.51;100.00
34297;BME280;20564;42.902;25.336;2023-03-01T01:16:37;97922.97;;;5.52;100.00
34297;BME280;20564;42.902;25.336;2023-03-01T01:19:06;97921.28;;;5.51;100.00
34297;BME280;20564;42.902;25.336;2023-03-01T01:21:48;97919.53;;;5.51;100.00
34297;BME280;20564;42.902;25.336;2023-03-01T01:24:15;97925.69;;;5.50;100.00
34297;BME280;20564;42.902;25.336;2023-03-01T01:26:46;97920.56;;;5.49;100.00
34297;BME280;20564;42.902;25.336;2023-03-01T01:29:26;97923.06;;;5.50;100.00
34297;BME280;20564;42.902;25.336;2023-03-01T01:31:56;97920.75;;;5.46;100.00
34297;BME280;20564;42.902;25.336;2023-03-01T01:34:24;97920.63;;;5.47;100.00
34297;BME280;20564;42.902;25.336;2023-03-01T01:36:53;97912.97;;;5.44;100.00
34297;BME280;20564;42.902;25.336;2023-03-01T01:39:23;97919.31;;;5.40;100.00
34297;BME280;20564;42.902;25.336;2023-03-01T01:41:51;97922.09;;;5.37;100.00
34297;BME280;20564;42.902;25.336;2023-03-01T01:44:27;97913.38;;;5.38;100.00
34297;BME280;20564;42.902;25.336;2023-03-01T01:47:36;97907.97;;;5.41;100.00
34297;BME280;20564;42.902;25.336;2023-03-01T01:50:14;97901.81;;;5.42;100.00
34297;BME280;20564;42.902;25.336;2023-03-01T01:53:28;97911.59;;;5.39;100.00
34297;BME280;20564;42.902;25.336;2023-03-01T01:56:09;97910.00;;;5.36;100.00
34297;BME280;20564;42.902;25.336;2023-03-01T01:58:40;97913.25;;;5.40;100.00
34297;BME280;20564;42.902;25.336;2023-03-01T02:01:09;97905.25;;;5.43;100.00
34297;BME280;20564;42.902;25.336;2023-03-01T02:03:44;97912.97;;;5.44;100.00
34297;BME280;20564;42.902;25.336;2023-03-01T02:06:21;97914.69;;;5.45;100.00
34297;BME280;20564;42.902;25.336;2023-03-01T02:09:00;97909.47;;;5.45;100.00
34297;BME280;20564;42.902;25.336;2023-03-01T02:11:30;97906.00;;;5.45;100.00
34297;BME280;20564;42.902;25.336;2023-03-01T02:13:58;97904.91;;;5.49;100.00
34297;BME280;20564;42.902;25.336;2023-03-01T02:16:26;97903.84;;;5.51;100.00
34297;BME280;20564;42.902;25.336;2023-03-01T02:18:59;97910.13;;;5.49;100.00
34297;BME280;20564;42.902;25.336;2023-03-01T02:24:39;97902.00;;;5.53;100.00
34297;BME280;20564;42.902;25.336;2023-03-01T02:27:09;97894.72;;;5.59;100.00
34297;BME280;20564;42.902;25.336;2023-03-01T02:29:58;97897.78;;;5.51;100.00
34297;BME280;20564;42.902;25.336;2023-03-01T02:32:30;97896.19;;;5.48;100.00
34297;BME280;20564;42.902;25.336;2023-03-01T02:34:58;97892.75;;;5.48;100.00
34297;BME280;20564;42.902;25.336;2023-03-01T02:37:35;97884.28;;;5.59;100.00
34297;BME280;20564;42.902;25.336;2023-03-01T02:40:08;97885.41;;;5.54;100.00
34297;BME280;20564;42.902;25.336;2023-03-01T02:42:48;97889.88;;;5.52;100.00
34297;BME280;20564;42.902;25.336;2023-03-01T02:45:22;97895.47;;;5.46;100.00
34297;BME280;20564;42.902;25.336;2023-03-01T02:47:50;97894.81;;;5.43;100.00
34297;BME280;20564;42.902;25.336;2023-03-01T02:50:47;97885.56;;;5.37;100.00
34297;BME280;20564;42.902;25.336;2023-03-01T02:53:49;97894.25;;;5.38;100.00
34297;BME280;20564;42.902;25.336;2023-03-01T02:56:20;97882.88;;;5.39;100.00
34297;BME280;20564;42.902;25.336;2023-03-01T02:58:48;97886.41;;;5.38;100.00
34297;BME280;20564;42.902;25.336;2023-03-01T03:01:19;97889.47;;;5.44;100.00
34297;BME280;20564;42.902;25.336;2023-03-01T03:03:56;97892.09;;;5.44;100.00
34297;BME280;20564;42.902;25.336;2023-03-01T03:06:37;97884.47;;;5.41;100.00
34297;BME280;20564;42.902;25.336;2023-03-01T03:09:08;97895.47;;;5.46;100.00
34297;BME280;20564;42.902;25.336;2023-03-01T03:11:36;97892.97;;;5.45;100.00
34297;BME280;20564;42.902;25.336;2023-03-01T03:14:08;97895.28;;;5.49;100.00
34297;BME280;20564;42.902;25.336;2023-03-01T03:17:06;97891.19;;;5.45;100.00
34297;BME280;20564;42.902;25.336;2023-03-01T03:19:38;97891.25;;;5.44;100.00
34297;BME280;20564;42.902;25.336;2023-03-01T03:22:08;97890.34;;;5.45;100.00
34297;BME280;20564;42.902;25.336;2023-03-01T03:25:12;97880.53;;;5.48;100.00
34297;BME280;20564;42.902;25.336;2023-03-01T03:27:48;97890.78;;;5.51;100.00
34297;BME280;20564;42.902;25.336;2023-03-01T03:30:19;97886.16;;;5.56;100.00
34297;BME280;20564;42.902;25.336;2023-03-01T03:36:25;97885.03;;;5.46;100.00
34297;BME280;20564;42.902;25.336;2023-03-01T03:39:01;97883.53;;;5.42;100.00
34297;BME280;20564;42.902;25.336;2023-03-01T03:41:30;97895.28;;;5.49;100.00
34297;BME280;20564;42.902;25.336;2023-03-01T03:44:00;97888.19;;;5.51;100.00
34297;BME280;20564;42.902;25.336;2023-03-01T03:46:47;97889.22;;;5.49;100.00
34297;BME280;20564;42.902;25.336;2023-03-01T03:49:14;97884.66;;;5.52;100.00
34297;BME280;20564;42.902;25.336;2023-03-01T03:51:50;97885.97;;;5.45;100.00
34297;BME280;20564;42.902;25.336;2023-03-01T03:54:18;97881.41;;;5.49;100.00
34297;BME280;20564;42.902;25.336;2023-03-01T03:59:30;97886.69;;;5.47;100.00
34297;BME280;20564;42.902;25.336;2023-03-01T04:01:59;97889.75;;;5.40;100.00
34297;BME280;20564;42.902;25.336;2023-03-01T04:04:26;97881.84;;;5.41;100.00
34297;BME280;20564;42.902;25.336;2023-03-01T04:06:56;97879.81;;;5.46;100.00
34297;BME280;20564;42.902;25.336;2023-03-01T04:09:24;97890.41;;;5.43;100.00
34297;BME280;20564;42.902;25.336;2023-03-01T04:12:24;97890.13;;;5.48;100.00
34297;BME280;20564;42.902;25.336;2023-03-01T04:15:11;97891.91;;;5.47;100.00
34297;BME280;20564;42.902;25.336;2023-03-01T04:17:48;97886.50;;;5.50;100.00
34297;BME280;20564;42.902;25.336;2023-03-01T04:21:09;97884.66;;;5.52;100.00
34297;BME280;20564;42.902;25.336;2023-03-01T04:23:40;97891.56;;;5.53;100.00
34297;BME280;20564;42.902;25.336;2023-03-01T04:29:11;97886.16;;;5.56;100.00
34297;BME280;20564;42.902;25.336;2023-03-01T04:31:46;97887.84;;;5.57;100.00
34297;BME280;20564;42.902;25.336;2023-03-01T04:34:19;97892.56;;;5.51;100.00
34297;BME280;20564;42.902;25.336;2023-03-01T04:36:49;97885.50;;;5.53;100.00
34297;BME280;20564;42.902;25.336;2023-03-01T04:39:26;97894.91;;;5.55;100.00
34297;BME280;20564;42.902;25.336;2023-03-01T04:42:22;97890.91;;;5.50;100.00
34297;BME280;20564;42.902;25.336;2023-03-01T04:45:02;97890.25;;;5.46;100.00
34297;BME280;20564;42.902;25.336;2023-03-01T04:48:13;97879.97;;;5.43;100.00
34297;BME280;20564;42.902;25.336;2023-03-01T04:50:46;97864.97;;;5.47;100.00
34297;BME280;20564;42.902;25.336;2023-03-01T04:53:27;97879.91;;;5.45;100.00
34297;BME280;20564;42.902;25.336;2023-03-01T04:55:56;97878.78;;;5.49;100.00
34297;BME280;20564;42.902;25.336;2023-03-01T04:58:24;97890.78;;;5.51;100.00
34297;BME280;20564;42.902;25.336;2023-03-01T05:00:57;97888.19;;;5.51;100.00
34297;BME280;20564;42.902;25.336;2023-03-01T05:03:33;97872.69;;;5.48;100.00
34297;BME280;20564;42.902;25.336;2023-03-01T05:06:10;97888.19;;;5.51;100.00
34297;BME280;20564;42.902;25.336;2023-03-01T05:08:41;97884.91;;;5.48;100.00
34297;BME280;20564;42.902;25.336;2023-03-01T05:11:12;97885.97;;;5.45;100.00
34297;BME280;20564;42.902;25.336;2023-03-01T05:13:48;97881.84;;;5.41;100.00
34297;BME280;20564;42.902;25.336;2023-03-01T05:16:30;97881.66;;;5.44;100.00
34297;BME280;20564;42.902;25.336;2023-03-01T05:19:19;97880.75;;;5.45;100.00
34297;BME280;20564;42.902;25.336;2023-03-01T05:21:52;97879.69;;;5.48;100.00
34297;BME280;20564;42.902;25.336;2023-03-01T05:24:33;97878.31;;;5.42;100.00
34297;BME280;20564;42.902;25.336;2023-03-01T05:27:23;97881.84;;;5.41;100.00
34297;BME280;20564;42.902;25.336;2023-03-01T05:30:00;97882.69;;;5.42;100.00
34297;BME280;20564;42.902;25.336;2023-03-01T05:32:48;97894.16;;;5.39;100.00
34297;BME280;20564;42.902;25.336;2023-03-01T05:35:17;97897.94;;;5.33;100.00
34297;BME280;20564;42.902;25.336;2023-03-01T05:37:51;97894.69;;;5.30;100.00
34297;BME280;20564;42.902;25.336;2023-03-01T05:40:34;97895.53;;;5.30;100.00
34297;BME280;20564;42.902;25.336;2023-03-01T05:43:15;97898.16;;;5.30;100.00
34297;BME280;20564;42.902;25.336;2023-03-01T05:46:12;97902.50;;;5.30;100.00
34297;BME280;20564;42.902;25.336;2023-03-01T05:48:43;97903.63;;;5.26;100.00
34297;BME280;20564;42.902;25.336;2023-03-01T05:51:23;97903.63;;;5.26;100.00
34297;BME280;20564;42.902;25.336;2023-03-01T05:53:53;97912.03;;;5.31;100.00
34297;BME280;20564;42.902;25.336;2023-03-01T05:56:24;97902.78;;;5.25;100.00
34297;BME280;20564;42.902;25.336;2023-03-01T05:59:00;97893.63;;;5.18;100.00
34297;BME280;20564;42.902;25.336;2023-03-01T06:01:33;97899.69;;;5.19;100.00
34297;BME280;20564;42.902;25.336;2023-03-01T06:04:02;97908.19;;;5.22;100.00
34297;BME280;20564;42.902;25.336;2023-03-01T06:06:37;97905.66;;;5.21;100.00
34297;BME280;20564;42.902;25.336;2023-03-01T06:09:14;97903.81;;;5.23;100.00
34297;BME280;20564;42.902;25.336;2023-03-01T06:11:43;97891.50;;;5.25;100.00
34297;BME280;20564;42.902;25.336;2023-03-01T06:14:13;97901.78;;;5.28;100.00
34297;BME280;20564;42.902;25.336;2023-03-01T06:17:13;97913.16;;;5.27;100.00
34297;BME280;20564;42.902;25.336;2023-03-01T06:19:41;97898.41;;;5.26;100.00
34297;BME280;20564;42.902;25.336;2023-03-01T06:22:08;97905.97;;;5.30;100.00
34297;BME280;20564;42.902;25.336;2023-03-01T06:24:39;97908.66;;;5.29;100.00
34297;BME280;20564;42.902;25.336;2023-03-01T06:27:12;97914.66;;;5.31;100.00
34297;BME280;20564;42.902;25.336;2023-03-01T06:36:12;97912.22;;;5.28;100.00
34297;BME280;20564;42.902;25.336;2023-03-01T06:38:39;97911.38;;;5.27;100.00
34297;BME280;20564;42.902;25.336;2023-03-01T06:41:07;97911.88;;;5.34;100.00
34297;BME280;20564;42.902;25.336;2023-03-01T06:43:38;97915.97;;;5.38;100.00
34297;BME280;20564;42.902;25.336;2023-03-01T06:46:14;97911.31;;;5.43;100.00
34297;BME280;20564;42.902;25.336;2023-03-01T06:48:46;97915.69;;;5.43;100.00
34297;BME280;20564;42.902;25.336;2023-03-01T06:51:19;97912.63;;;5.50;100.00
34297;BME280;20564;42.902;25.336;2023-03-01T06:53:49;97917.84;;;5.50;100.00
34297;BME280;20564;42.902;25.336;2023-03-01T06:56:41;97910.78;;;5.52;100.00
34297;BME280;20564;42.902;25.336;2023-03-01T06:59:09;97910.38;;;5.59;100.00
34297;BME280;20564;42.902;25.336;2023-03-01T07:01:37;97917.50;;;5.56;100.00
34297;BME280;20564;42.902;25.336;2023-03-01T07:04:16;97903.84;;;5.51;100.00
34297;BME280;20564;42.902;25.336;2023-03-01T07:10:11;97921.75;;;5.43;100.00
34297;BME280;20564;42.902;25.336;2023-03-01T07:12:38;97911.13;;;5.46;100.00
34297;BME280;20564;42.902;25.336;2023-03-01T07:15:06;97908.91;;;5.54;100.00
34297;BME280;20564;42.902;25.336;2023-03-01T07:17:33;97905.34;;;5.55;100.00
34297;BME280;20564;42.902;25.336;2023-03-01T07:19:59;97909.38;;;5.61;100.00
34297;BME280;20564;42.902;25.336;2023-03-01T07:22:26;97913.94;;;5.57;100.00
34297;BME280;20564;42.902;25.336;2023-03-01T07:24:53;97904.63;;;5.53;100.00
34297;BME280;20564;42.902;25.336;2023-03-01T07:27:20;97915.78;;;5.55;100.00
34297;BME280;20564;42.902;25.336;2023-03-01T07:29:47;97913.94;;;5.57;100.00
34297;BME280;20564;42.902;25.336;2023-03-01T07:32:13;97910.56;;;5.55;100.00
34297;BME280;20564;42.902;25.336;2023-03-01T07:34:40;97914.59;;;5.61;100.00
34297;BME280;20564;42.902;25.336;2023-03-01T07:37:10;97910.38;;;5.59;100.00
34297;BME280;20564;42.902;25.336;2023-03-01T07:39:37;97905.94;;;5.61;100.00
34297;BME280;20564;42.902;25.336;2023-03-01T07:42:04;97908.38;;;5.64;100.00
34297;BME280;20564;42.902;25.336;2023-03-01T07:44:31;97899.41;;;5.68;100.00
34297;BME280;20564;42.902;25.336;2023-03-01T07:46:58;97907.13;;;5.69;100.00
34297;BME280;20564;42.902;25.336;2023-03-01T07:49:25;97906.31;;;5.69;100.00
34297;BME280;20564;42.902;25.336;2023-03-01T07:51:55;97913.59;;;5.64;100.00
34297;BME280;20564;42.902;25.336;2023-03-01T07:54:22;97912.38;;;5.69;100.00
34297;BME280;20564;42.902;25.336;2023-03-01T07:56:50;97906.13;;;5.72;100.00
34297;BME280;20564;42.902;25.336;2023-03-01T07:59:16;97907.50;;;5.77;100.00
34297;BME280;20564;42.902;25.336;2023-03-01T08:01:46;97908.16;;;5.81;100.00
34297;BME280;20564;42.902;25.336;2023-03-01T08:04:13;97908.38;;;5.78;100.00
34297;BME280;20564;42.902;25.336;2023-03-01T08:06:40;97902.94;;;5.81;100.00
34297;BME280;20564;42.902;25.336;2023-03-01T08:09:07;97900.97;;;5.85;100.00
34297;BME280;20564;42.902;25.336;2023-03-01T08:11:35;97900.16;;;5.84;100.00
34297;BME280;20564;42.902;25.336;2023-03-01T08:14:02;97903.69;;;5.83;100.00
34297;BME280;20564;42.902;25.336;2023-03-01T08:16:40;97907.72;;;5.89;100.00
34297;BME280;20564;42.902;25.336;2023-03-01T08:19:10;97896.22;;;5.91;100.00
34297;BME280;20564;42.902;25.336;2023-03-01T08:21:38;97891.50;;;5.98;100.00
34297;BME280;20564;42.902;25.336;2023-03-01T08:24:06;97895.53;;;6.03;100.00
34297;BME280;20564;42.902;25.336;2023-03-01T08:26:33;97893.81;;;6.02;100.00
34297;BME280;20564;42.902;25.336;2023-03-01T08:29:00;97893.09;;;6.00;100.00
34297;BME280;20564;42.902;25.336;2023-03-01T08:31:32;97895.53;;;6.03;100.00
34297;BME280;20564;42.902;25.336;2023-03-01T08:34:00;97898.69;;;6.09;100.00
34297;BME280;20564;42.902;25.336;2023-03-01T08:36:43;97896.44;;;6.17;100.00
34297;BME280;20564;42.902;25.336;2023-03-01T08:39:14;97897.19;;;6.19;100.00
34297;BME280;20564;42.902;25.336;2023-03-01T08:41:41;97895.88;;;6.26;100.00
34297;BME280;20564;42.902;25.336;2023-03-01T08:44:10;97903.72;;;6.26;100.00
34297;BME280;20564;42.902;25.336;2023-03-01T08:46:40;97894.16;;;6.25;100.00
34297;BME280;20564;42.902;25.336;2023-03-01T08:49:10;97896.22;;;6.34;100.00
34297;BME280;20564;42.902;25.336;2023-03-01T08:51:38;97900.63;;;6.34;100.00
34297;BME280;20564;42.902;25.336;2023-03-01T08:54:24;97909.47;;;6.31;100.00
34297;BME280;20564;42.902;25.336;2023-03-01T08:57:09;97905.91;;;6.32;100.00
34297;BME280;20564;42.902;25.336;2023-03-01T08:59:53;97908.34;;;6.35;100.00
34297;BME280;20564;42.902;25.336;2023-03-01T09:02:22;97907.44;;;6.36;100.00
34297;BME280;20564;42.902;25.336;2023-03-01T09:04:55;97898.66;;;6.37;100.00
34297;BME280;20564;42.902;25.336;2023-03-01T09:07:52;97904.72;;;6.38;100.00
34297;BME280;20564;42.902;25.336;2023-03-01T09:10:32;97905.72;;;6.35;100.00
34297;BME280;20564;42.902;25.336;2023-03-01T09:13:09;97902.22;;;6.36;100.00
34297;BME280;20564;42.902;25.336;2023-03-01T09:15:39;97896.88;;;6.38;100.00
34297;BME280;20564;42.902;25.336;2023-03-01T09:18:11;97909.09;;;6.37;100.00
34297;BME280;20564;42.902;25.336;2023-03-01T09:20:39;97905.66;;;6.37;100.00
34297;BME280;20564;42.902;25.336;2023-03-01T09:23:12;97903.97;;;6.36;100.00
34297;BME280;20564;42.902;25.336;2023-03-01T09:25:45;97910.66;;;6.40;100.00
34297;BME280;20564;42.902;25.336;2023-03-01T09:28:15;97903.69;;;6.40;100.00
34297;BME280;20564;42.902;25.336;2023-03-01T09:30:58;97898.88;;;6.47;100.00
34297;BME280;20564;42.902;25.336;2023-03-01T09:33:28;97893.22;;;6.40;100.00
34297;BME280;20564;42.902;25.336;2023-03-01T09:36:04;97896.97;;;6.36;100.00
34297;BME280;20564;42.902;25.336;2023-03-01T09:42:21;97893.97;;;6.28;100.00
34297;BME280;20564;42.902;25.336;2023-03-01T09:48:09;97889.16;;;6.22;100.00
34297;BME280;20564;42.902;25.336;2023-03-01T09:50:41;97893.16;;;6.27;100.00
34297;BME280;20564;42.902;25.336;2023-03-01T09:53:13;97883.34;;;6.31;100.00
34297;BME280;20564;42.902;25.336;2023-03-01T09:55:55;97883.34;;;6.31;100.00
34297;BME280;20564;42.902;25.336;2023-03-01T10:03:46;97869.59;;;6.42;100.00
34297;BME280;20564;42.902;25.336;2023-03-01T10:13:15;97878.59;;;6.50;100.00
34297;BME280;20564;42.902;25.336;2023-03-01T10:16:01;97879.25;;;6.54;100.00
34297;BME280;20564;42.902;25.336;2023-03-01T10:18:40;97871.31;;;6.56;100.00
34297;BME280;20564;42.902;25.336;2023-03-01T10:21:15;97874.66;;;6.58;100.00
34297;BME280;20564;42.902;25.336;2023-03-01T10:24:16;97871.97;;;6.59;100.00
34297;BME280;20564;42.902;25.336;2023-03-01T10:26:54;97866.47;;;6.49;100.00
34297;BME280;20564;42.902;25.336;2023-03-01T10:29:39;97864.44;;;6.55;100.00
34297;BME280;20564;42.902;25.336;2023-03-01T10:32:10;97857.69;;;6.50;100.00
34297;BME280;20564;42.902;25.336;2023-03-01T10:34:38;97860.94;;;6.54;100.00
34297;BME280;20564;42.902;25.336;2023-03-01T10:40:07;97856.28;;;6.59;100.00
34297;BME280;20564;42.902;25.336;2023-03-01T10:42:49;97843.50;;;6.55;100.00
34297;BME280;20564;42.902;25.336;2023-03-01T10:45:30;97849.25;;;6.60;100.00
34297;BME280;20564;42.902;25.336;2023-03-01T10:55:43;97838.50;;;6.64;100.00
34297;BME280;20564;42.902;25.336;2023-03-01T10:58:37;97835.16;;;6.62;100.00
34297;BME280;20564;42.902;25.336;2023-03-01T11:01:25;97838.50;;;6.64;100.00
34297;BME280;20564;42.902;25.336;2023-03-01T11:06:46;97830.66;;;6.64;100.00
34297;BME280;20564;42.902;25.336;2023-03-01T11:09:54;97839.53;;;6.62;100.00
34297;BME280;20564;42.902;25.336;2023-03-01T11:13:19;97829.06;;;6.62;100.00
34297;BME280;20564;42.902;25.336;2023-03-01T11:16:03;97822.16;;;6.61;100.00
34297;BME280;20564;42.902;25.336;2023-03-01T11:18:42;97816.53;;;6.67;100.00
34297;BME280;20564;42.902;25.336;2023-03-01T11:22:16;97815.59;;;6.68;100.00
34297;BME280;20564;42.902;25.336;2023-03-01T11:24:51;97817.38;;;6.67;100.00
34297;BME280;20564;42.902;25.336;2023-03-01T11:27:39;97807.94;;;6.65;100.00
34297;BME280;20564;42.902;25.336;2023-03-01T11:30:40;97818.22;;;6.68;100.00
34297;BME280;20564;42.902;25.336;2023-03-01T11:36:45;97797.47;;;6.65;100.00
34297;BME280;20564;42.902;25.336;2023-03-01T11:42:11;97787.56;;;6.70;100.00
34297;BME280;20564;42.902;25.336;2023-03-01T11:44:47;97781.59;;;6.68;100.00
34297;BME280;20564;42.902;25.336;2023-03-01T11:55:29;97785.97;;;6.67;100.00
34297;BME280;20564;42.902;25.336;2023-03-01T12:04:11;97770.22;;;6.82;100.00
34297;BME280;20564;42.902;25.336;2023-03-01T12:07:00;97777.22;;;6.81;100.00
34297;BME280;20564;42.902;25.336;2023-03-01T12:09:36;97777.22;;;6.81;100.00
34297;BME280;20564;42.902;25.336;2023-03-01T12:20:38;97764.03;;;6.70;100.00
34297;BME280;20564;42.902;25.336;2023-03-01T12:32:17;97757.09;;;6.69;100.00
34297;BME280;20564;42.902;25.336;2023-03-01T12:35:20;97754.41;;;6.70;100.00
34297;BME280;20564;42.902;25.336;2023-03-01T12:50:55;97755.44;;;6.68;100.00
34297;BME280;20564;42.902;25.336;2023-03-01T12:53:59;97748.53;;;6.67;100.00
34297;BME280;20564;42.902;25.336;2023-03-01T12:56:37;97751.47;;;6.75;100.00
34297;BME280;20564;42.902;25.336;2023-03-01T12:59:30;97751.06;;;6.81;100.00
34297;BME280;20564;42.902;25.336;2023-03-01T13:04:59;97743.53;;;6.76;100.00
34297;BME280;20564;42.902;25.336;2023-03-01T13:11:18;97748.34;;;6.70;100.00
34297;BME280;20564;42.902;25.336;2023-03-01T13:16:53;97743.09;;;6.70;100.00
34297;BME280;20564;42.902;25.336;2023-03-01T13:19:25;97750.00;;;6.71;100.00
34297;BME280;20564;42.902;25.336;2023-03-01T13:21:59;97744.78;;;6.71;100.00
34297;BME280;20564;42.902;25.336;2023-03-01T13:24:42;97745.28;;;6.76;100.00
34297;BME280;20564;42.902;25.336;2023-03-01T13:27:24;97745.84;;;6.81;100.00
34297;BME280;20564;42.902;25.336;2023-03-01T13:30:01;97755.16;;;6.85;100.00
34297;BME280;20564;42.902;25.336;2023-03-01T13:32:37;97749.59;;;6.90;100.00
34297;BME280;20564;42.902;25.336;2023-03-01T13:37:45;97750.63;;;6.87;100.00
34297;BME280;20564;42.902;25.336;2023-03-01T13:43:38;97740.16;;;6.87;100.00
34297;BME280;20564;42.902;25.336;2023-03-01T13:46:42;97733.69;;;6.80;100.00
34297;BME280;20564;42.902;25.336;2023-03-01T13:49:32;97740.16;;;6.74;100.00
34297;BME280;20564;42.902;25.336;2023-03-01T13:56:21;97742.66;;;6.76;100.00
34297;BME280;20564;42.902;25.336;2023-03-01T13:59:25;97740.81;;;6.78;100.00
34297;BME280;20564;42.902;25.336;2023-03-01T14:02:34;97737.44;;;6.76;100.00
34297;BME280;20564;42.902;25.336;2023-03-01T14:05:03;97735.97;;;6.72;100.00
34297;BME280;20564;42.902;25.336;2023-03-01T14:07:34;97733.97;;;6.63;100.00
34297;BME280;20564;42.902;25.336;2023-03-01T14:13:29;97744.13;;;6.55;100.00
34297;BME280;20564;42.902;25.336;2023-03-01T14:22:43;97722.13;;;6.44;100.00
34297;BME280;20564;42.902;25.336;2023-03-01T14:25:35;97734.31;;;6.31;100.00
34297;BME280;20564;42.902;25.336;2023-03-01T14:28:18;97722.91;;;6.32;100.00
34297;BME280;20564;42.902;25.336;2023-03-01T14:30:54;97728.25;;;6.31;100.00
34297;BME280;20564;42.902;25.336;2023-03-01T14:36:26;97727.09;;;6.22;100.00
34297;BME280;20564;42.902;25.336;2023-03-01T14:38:57;97726.47;;;6.31;100.00
34297;BME280;20564;42.902;25.336;2023-03-01T14:41:35;97727.88;;;6.37;100.00
34297;BME280;20564;42.902;25.336;2023-03-01T14:44:35;97731.31;;;6.37;100.00
34297;BME280;20564;42.902;25.336;2023-03-01T14:47:11;97722.00;;;6.33;100.00
34297;BME280;20564;42.902;25.336;2023-03-01T14:49:40;97719.03;;;6.25;100.00
34297;BME280;20564;42.902;25.336;2023-03-01T14:52:21;97730.22;;;6.27;100.00
34297;BME280;20564;42.902;25.336;2023-03-01T14:54:54;97735.06;;;6.33;100.00
34297;BME280;20564;42.902;25.336;2023-03-01T14:57:36;97724.41;;;6.36;100.00
34297;BME280;20564;42.902;25.336;2023-03-01T15:00:27;97731.94;;;6.41;100.00
34297;BME280;20564;42.902;25.336;2023-03-01T15:04:02;97734.00;;;6.36;100.00
34297;BME280;20564;42.902;25.336;2023-03-01T15:06:49;97726.22;;;6.21;100.00
34297;BME280;20564;42.902;25.336;2023-03-01T15:09:18;97727.03;;;6.09;100.00
34297;BME280;20564;42.902;25.336;2023-03-01T15:12:46;97729.97;;;6.04;100.00
34297;BME280;20564;42.902;25.336;2023-03-01T15:19:06;97729.03;;;5.91;100.00
34297;BME280;20564;42.902;25.336;2023-03-01T15:25:33;97728.03;;;5.94;100.00
34297;BME280;20564;42.902;25.336;2023-03-01T15:28:43;97719.69;;;6.01;100.00
34297;BME280;20564;42.902;25.336;2023-03-01T15:31:37;97721.78;;;5.96;100.00
34297;BME280;20564;42.902;25.336;2023-03-01T15:34:22;97721.78;;;5.96;100.00
34297;BME280;20564;42.902;25.336;2023-03-01T15:36:54;97735.75;;;5.95;100.00
34297;BME280;20564;42.902;25.336;2023-03-01T15:39:57;97739.47;;;6.06;100.00
34297;BME280;20564;42.902;25.336;2023-03-01T15:48:20;97738.00;;;5.87;100.00
34297;BME280;20564;42.902;25.336;2023-03-01T15:54:21;97723.34;;;5.85;100.00
34297;BME280;20564;42.902;25.336;2023-03-01T15:56:50;97728.34;;;5.75;100.00
34297;BME280;20564;42.902;25.336;2023-03-01T16:03:22;97730.59;;;5.67;100.00
34297;BME280;20564;42.902;25.336;2023-03-01T16:06:28;97732.44;;;5.65;100.00
34297;BME280;20564;42.902;25.336;2023-03-01T16:09:23;97737.69;;;5.65;100.00
34297;BME280;20564;42.902;25.336;2023-03-01T16:12:26;97732.44;;;5.65;100.00
34297;BME280;20564;42.902;25.336;2023-03-01T16:14:54;97727.22;;;5.65;100.00
34297;BME280;20564;42.902;25.336;2023-03-01T16:17:48;97735.41;;;5.73;100.00
34297;BME280;20564;42.902;25.336;2023-03-01T16:20:16;97737.69;;;5.65;100.00
34297;BME280;20564;42.902;25.336;2023-03-01T16:22:54;97744.03;;;5.61;100.00